Time;durP1;ratioP1;P1;durP2;ratioP2;P2;SDS_P1;SDS_P2;PMS_P1;PMS_P2;Temp;Humidity;BMP_temperature;BMP_pressure;BME280_temperature;BME280_humidity;BME280_pressure;Samples;Min_cycle;Max_cycle;Signal;HPM_P1;HPM_P2
2022/09/23 00:00:42;;;;;;;18.62;9.15;;;;;;;9.33;100.00;99319.41;4366544;32;20458;-74
2022/09/23 00:03:29;;;;;;;16.92;8.90;;;;;;;9.59;100.00;99368.37;4370105;32;20036;-68
2022/09/23 00:06:03;;;;;;;18.30;9.65;;;;;;;9.35;100.00;99344.19;4369755;32;20354;-69
2022/09/23 00:08:30;;;;;;;15.23;8.15;;;;;;;9.46;100.00;99369.41;4338755;33;20032;-70
2022/09/23 00:11:02;;;;;;;17.83;8.40;;;;;;;9.47;100.00;99356.81;4341392;32;20070;-70
2022/09/23 00:13:28;;;;;;;16.40;8.27;;;;;;;9.30;100.00;99335.19;4369882;32;20047;-70
2022/09/23 00:15:54;;;;;;;12.48;7.07;;;;;;;9.21;100.00;99313.25;4369403;32;20028;-69
2022/09/23 00:18:21;;;;;;;20.67;7.82;;;;;;;9.48;100.00;99347.69;4353069;32;20057;-73
2022/09/23 00:20:47;;;;;;;15.70;8.25;;;;;;;9.27;100.00;99320.38;4321359;33;20082;-69
2022/09/23 00:23:14;;;;;;;17.10;8.88;;;;;;;9.50;100.00;99353.66;4325318;33;20033;-69
2022/09/23 00:25:40;;;;;;;19.75;8.00;;;;;;;9.53;100.00;99361.25;4264677;33;20034;-69
2022/09/23 00:28:06;;;;;;;15.38;8.45;;;;;;;9.36;100.00;99351.19;4242526;33;20086;-70
2022/09/23 00:30:33;;;;;;;13.02;7.55;;;;;;;9.20;100.00;99308.91;4252750;33;20034;-73
2022/09/23 00:32:59;;;;;;;15.88;8.50;;;;;;;9.24;100.00;99313.59;4253332;33;20545;-69
2022/09/23 00:35:26;;;;;;;23.60;11.38;;;;;;;9.51;100.00;99352.59;4252268;33;20079;-69
2022/09/23 00:37:52;;;;;;;21.67;8.82;;;;;;;9.32;100.00;99354.56;4251749;33;20400;-70
2022/09/23 00:40:25;;;;;;;15.98;8.60;;;;;;;8.97;100.00;99310.53;4274623;33;20026;-69
2022/09/23 00:42:51;;;;;;;20.20;9.82;;;;;;;9.30;100.00;99352.13;4279526;33;20446;-70
2022/09/23 00:45:25;;;;;;;22.15;10.40;;;;;;;9.20;100.00;99341.16;4281340;33;20063;-69
2022/09/23 00:47:58;;;;;;;17.92;10.32;;;;;;;8.90;100.00;99296.38;4281674;33;20033;-69
2022/09/23 00:50:35;;;;;;;19.87;9.07;;;;;;;9.20;100.00;99347.31;4255775;33;20046;-70
2022/09/23 00:53:05;;;;;;;12.27;7.40;;;;;;;9.24;100.00;99350.38;4278275;33;20042;-69
2022/09/23 00:55:38;;;;;;;16.33;8.13;;;;;;;9.02;100.00;99301.78;4281701;33;20506;-70
2022/09/23 00:58:09;;;;;;;18.55;9.55;;;;;;;9.37;100.00;99352.03;4324799;33;20457;-70
2022/09/23 01:00:36;;;;;;;;;;;;;;;9.17;100.00;99315.56;4341050;32;20055;-71
2022/09/23 01:03:04;;;;;;;11.95;7.30;;;;;;;9.32;100.00;99350.03;4345882;32;20491;-70
2022/09/23 01:05:32;;;;;;;13.65;8.25;;;;;;;9.01;100.00;99327.81;4345385;32;20028;-69
2022/09/23 01:08:01;;;;;;;18.45;8.98;;;;;;;8.87;100.00;99291.47;4358499;32;20032;-70
2022/09/23 01:10:41;;;;;;;23.58;9.02;;;;;;;8.85;100.00;99278.28;4397569;32;20101;-73
2022/09/23 01:13:25;;;;;;;16.42;8.90;;;;;;;9.05;100.00;99301.31;4367199;32;20503;-69
2022/09/23 01:16:17;;;;;;;19.00;9.80;;;;;;;8.96;100.00;99303.53;4368197;32;20031;-71
2022/09/23 01:18:46;;;;;;;22.80;9.60;;;;;;;9.25;100.00;99338.56;4368528;32;20047;-69
2022/09/23 01:21:20;;;;;;;21.37;9.82;;;;;;;8.83;100.00;99295.69;4386125;32;20087;-69
2022/09/23 01:24:07;;;;;;;19.65;9.25;;;;;;;8.97;100.00;99342.75;4413007;32;20069;-70
2022/09/23 01:26:45;;;;;;;15.90;8.65;;;;;;;8.77;100.00;99343.06;4414147;32;20060;-69
2022/09/23 01:29:40;;;;;;;19.98;8.90;;;;;;;8.60;100.00;99342.91;4411834;32;20081;-69
2022/09/23 01:32:15;;;;;;;19.48;8.88;;;;;;;8.54;100.00;99338.47;4413313;32;20074;-68
2022/09/23 01:34:53;;;;;;;27.35;9.40;;;;;;;8.35;100.00;99303.59;4411525;32;20207;-68
2022/09/23 01:37:46;;;;;;;18.12;8.77;;;;;;;8.09;100.00;99271.78;4414104;32;20042;-68
2022/09/23 01:40:19;;;;;;;19.08;9.15;;;;;;;8.33;100.00;99327.16;4412224;32;20096;-69
2022/09/23 01:42:57;;;;;;;;;;;;;;;8.03;100.00;99288.78;4406177;32;20109;-69
2022/09/23 01:45:30;;;;;;;23.52;10.05;;;;;;;8.36;100.00;99337.44;4369055;32;20338;-69
2022/09/23 01:48:20;;;;;;;22.98;10.07;;;;;;;8.27;100.00;99333.44;4365194;32;20050;-69
2022/09/23 01:50:56;;;;;;;22.52;8.25;;;;;;;8.18;100.00;99334.78;4364342;32;20035;-69
2022/09/23 01:53:42;;;;;;;19.20;8.52;;;;;;;7.87;100.00;99283.00;4366682;32;20432;-72
2022/09/23 01:56:16;;;;;;;21.00;9.38;;;;;;;8.03;100.00;99318.28;4357926;32;20040;-69
2022/09/23 01:58:53;;;;;;;17.75;9.07;;;;;;;8.03;100.00;99312.94;4353499;32;20494;-72
2022/09/23 02:01:30;;;;;;;20.08;9.82;;;;;;;7.74;100.00;99291.22;4329574;33;20110;-70
2022/09/23 02:04:10;;;;;;;24.10;9.80;;;;;;;7.74;100.00;99275.13;4338592;33;20504;-69
2022/09/23 02:06:45;;;;;;;23.30;9.63;;;;;;;7.93;100.00;99316.97;4335047;33;20041;-69
2022/09/23 02:09:15;;;;;;;18.95;9.25;;;;;;;7.98;100.00;99314.41;4375198;32;20035;-69
2022/09/23 02:11:47;;;;;;;18.65;9.30;;;;;;;7.85;100.00;99321.78;4379528;32;20064;-70
2022/09/23 02:14:37;;;;;;;22.55;8.95;;;;;;;7.74;100.00;99318.03;4381703;32;20034;-73
2022/09/23 02:17:16;;;;;;;21.15;8.95;;;;;;;7.66;100.00;99321.81;4416971;32;20060;-70
2022/09/23 02:19:51;;;;;;;21.65;9.70;;;;;;;7.70;100.00;99316.81;4427577;32;20399;-72
2022/09/23 02:22:24;;;;;;;24.12;9.10;;;;;;;7.48;100.00;99282.41;4398087;32;20082;-71
2022/09/23 02:24:53;;;;;;;22.52;9.55;;;;;;;7.36;100.00;99249.38;4398229;32;20227;-69
2022/09/23 02:27:35;;;;;;;22.98;8.80;;;;;;;7.05;100.00;99202.94;4398078;32;20046;-69
2022/09/23 02:30:21;;;;;;;24.20;10.40;;;;;;;7.53;100.00;99274.53;4397721;32;20130;-69
2022/09/23 02:32:48;;;;;;;61.08;26.98;;;;;;;7.59;100.00;99268.25;4396738;32;20487;-69
2022/09/23 02:35:35;;;;;;;56.13;26.73;;;;;;;7.89;100.00;99323.78;4396557;32;20047;-74
2022/09/23 02:38:24;;;;;;;27.85;14.23;;;;;;;8.08;100.00;99313.88;4397942;32;20072;-69
2022/09/23 02:41:03;;;;;;;25.45;11.73;;;;;;;8.13;100.00;99315.87;4396682;32;20091;-73
2022/09/23 02:43:52;;;;;;;23.30;10.85;;;;;;;8.19;100.00;99320.34;4397792;32;20062;-69
2022/09/23 02:46:20;;;;;;;23.67;10.02;;;;;;;7.76;100.00;99262.31;4367280;32;20063;-73
2022/09/23 02:48:52;;;;;;;20.52;9.35;;;;;;;8.17;100.00;99311.72;4366248;32;20079;-69
2022/09/23 02:51:18;;;;;;;25.70;11.38;;;;;;;8.05;100.00;99270.59;4367305;32;20023;-68
2022/09/23 02:53:46;;;;;;;27.17;11.00;;;;;;;8.18;100.00;99307.97;4375803;32;20049;-69
2022/09/23 02:56:19;;;;;;;17.95;10.45;;;;;;;7.76;100.00;99278.41;4368056;32;20168;-69
2022/09/23 02:58:48;;;;;;;15.43;8.57;;;;;;;8.10;100.00;99324.38;4366136;32;20065;-70
2022/09/23 03:01:39;;;;;;;12.50;8.32;;;;;;;8.10;100.00;99305.59;4366891;32;20039;-69
2022/09/23 03:04:24;;;;;;;24.30;8.88;;;;;;;7.96;100.00;99278.97;4365549;32;20027;-73
2022/09/23 03:07:31;;;;;;;51.80;10.65;;;;;;;8.27;100.00;99328.06;4368050;32;20051;-69
2022/09/23 03:10:15;;;;;;;38.47;12.07;;;;;;;8.00;100.00;99280.12;4367313;32;20065;-70
2022/09/23 03:12:51;;;;;;;47.05;13.20;;;;;;;7.91;100.00;99273.44;4367640;32;20059;-70
2022/09/23 03:15:34;;;;;;;53.95;12.13;;;;;;;8.14;100.00;99302.25;4366477;32;20039;-71
2022/09/23 03:18:10;;;;;;;;;;;;;;;7.84;100.00;99274.59;4390057;32;20061;-68
2022/09/23 03:20:48;;;;;;;311.98;15.27;;;;;;;8.06;100.00;99317.81;4397035;32;19938;-71
2022/09/23 03:23:20;;;;;;;151.93;8.90;;;;;;;7.94;100.00;99323.94;4423953;32;20046;-69
2022/09/23 03:25:48;;;;;;;;;;;;;;;7.97;100.00;99328.84;4431592;32;20165;-69
2022/09/23 03:28:20;;;;;;;185.75;12.73;;;;;;;7.98;100.00;99325.13;4415381;32;19937;-69
2022/09/23 03:30:50;;;;;;;231.93;14.27;;;;;;;8.03;100.00;99326.34;4414008;32;20029;-69
2022/09/23 03:33:20;;;;;;;65.05;15.73;;;;;;;7.95;100.00;99324.78;4414214;32;20020;-69
2022/09/23 03:38:51;;;;;;;255.30;18.47;;;;;;;7.56;100.00;99279.47;4415682;32;20050;-68
2022/09/23 03:41:28;;;;;;;135.30;10.95;;;;;;;7.04;100.00;99225.41;4413882;32;20072;-68
2022/09/23 03:43:57;;;;;;;99.28;9.23;;;;;;;7.70;100.00;99327.53;4413135;32;20030;-69
2022/09/23 03:46:30;;;;;;;73.85;9.38;;;;;;;7.73;100.00;99314.50;4400908;32;20060;-69
2022/09/23 03:49:08;;;;;;;127.78;14.30;;;;;;;7.45;100.00;99272.13;4400192;32;20423;-69
2022/09/23 03:51:34;;;;;;;136.15;8.55;;;;;;;7.30;100.00;99283.22;4382990;32;20451;-70
2022/09/23 03:54:01;;;;;;;260.90;15.38;;;;;;;7.37;100.00;99312.63;4385234;32;20097;-68
2022/09/23 03:56:27;;;;;;;255.18;18.05;;;;;;;7.19;100.00;99300.84;4385149;32;20072;-68
2022/09/23 03:58:53;;;;;;;89.97;8.73;;;;;;;7.22;100.00;99315.66;4388390;32;20038;-69
2022/09/23 04:01:20;;;;;;;155.75;9.25;;;;;;;7.20;100.00;99307.84;4398589;32;20050;-72
2022/09/23 04:03:47;;;;;;;217.93;13.60;;;;;;;6.86;100.00;99264.50;4394252;32;20065;-69
2022/09/23 04:06:14;;;;;;;395.08;22.83;;;;;;;6.88;100.00;99267.78;4385235;32;20499;-68
2022/09/23 04:08:40;;;;;;;163.20;10.60;;;;;;;7.16;100.00;99317.34;4392548;32;20064;-68
2022/09/23 04:11:07;;;;;;;111.82;8.93;;;;;;;6.86;100.00;99263.66;4353216;32;20064;-68
2022/09/23 04:13:33;;;;;;;290.33;16.10;;;;;;;7.16;100.00;99317.34;4338302;33;20075;-71
2022/09/23 04:16:00;;;;;;;364.33;19.08;;;;;;;7.15;100.00;99310.38;4340188;33;20307;-68
2022/09/23 04:18:26;;;;;;;184.65;12.00;;;;;;;6.81;100.00;99266.19;4340369;33;20430;-68
2022/09/23 04:20:57;;;;;;;283.98;11.77;;;;;;;7.11;100.00;99303.81;4339767;33;20071;-68
2022/09/23 04:23:25;;;;;;;64.93;7.60;;;;;;;6.98;100.00;99272.62;4374189;32;20081;-72
2022/09/23 04:25:52;;;;;;;83.55;9.82;;;;;;;7.31;100.00;99318.84;4377689;32;20039;-68
2022/09/23 04:28:20;;;;;;;233.43;11.93;;;;;;;7.20;100.00;99307.84;4383966;32;20038;-69
2022/09/23 04:30:47;;;;;;;55.22;7.72;;;;;;;6.95;100.00;99274.94;4354682;32;20044;-69
2022/09/23 04:33:15;;;;;;;489.55;21.58;;;;;;;7.16;100.00;99322.69;4354150;32;20444;-69
2022/09/23 04:35:44;;;;;;;74.15;7.78;;;;;;;7.16;100.00;99320.03;4346588;32;20069;-73
2022/09/23 04:38:11;;;;;;;292.37;17.33;;;;;;;6.96;100.00;99273.91;4327322;33;20536;-69
2022/09/23 04:40:38;;;;;;;385.77;22.73;;;;;;;7.14;100.00;99311.41;4328939;33;20070;-69
2022/09/23 04:43:04;;;;;;;710.75;33.67;;;;;;;7.15;100.00;99313.06;4337141;33;20025;-69
2022/09/23 04:45:31;;;;;;;99.43;8.15;;;;;;;6.85;100.00;99256.69;4364427;32;20055;-69
2022/09/23 04:47:58;;;;;;;59.28;8.30;;;;;;;6.81;100.00;99267.03;4354865;32;20300;-69
2022/09/23 04:50:32;;;;;;;88.40;9.35;;;;;;;6.83;100.00;99256.91;4360354;32;20024;-69
2022/09/23 04:52:59;;;;;;;213.52;15.82;;;;;;;7.42;100.00;99310.13;4368290;32;20445;-69
2022/09/23 04:55:25;;;;;;;215.27;10.40;;;;;;;7.18;100.00;99267.09;4379687;32;20450;-73
2022/09/23 04:57:51;;;;;;;236.68;12.43;;;;;;;7.23;100.00;99274.47;4366291;32;20039;-70
2022/09/23 05:00:18;;;;;;;179.93;15.13;;;;;;;6.86;100.00;99264.50;4367947;32;20044;-69
2022/09/23 05:02:45;;;;;;;83.90;9.48;;;;;;;7.19;100.00;99295.47;4409729;32;20107;-69
2022/09/23 05:05:13;;;;;;;293.23;12.85;;;;;;;7.40;100.00;99306.81;4415908;32;20072;-70
2022/09/23 05:07:40;;;;;;;65.05;7.93;;;;;;;7.51;100.00;99307.94;4413715;32;20047;-71
2022/09/23 05:10:07;;;;;;;176.82;15.18;;;;;;;6.94;100.00;99220.56;4410456;32;20069;-70
2022/09/23 05:12:33;;;;;;;20.55;6.95;;;;;;;7.46;100.00;99309.44;4415041;32;20092;-70
2022/09/23 05:14:59;;;;;;;11.57;7.30;;;;;;;7.49;100.00;99305.50;4416234;32;20187;-70
2022/09/23 05:17:28;;;;;;;117.40;9.65;;;;;;;7.64;100.00;99303.28;4415725;32;20042;-70
2022/09/23 05:19:56;;;;;;;13.95;8.13;;;;;;;7.75;100.00;99301.69;4421170;32;20038;-73
2022/09/23 05:22:25;;;;;;;21.52;7.43;;;;;;;7.81;100.00;99308.84;4416597;32;21038;-70
2022/09/23 05:24:52;;;;;;;13.25;7.40;;;;;;;7.93;100.00;99311.59;4415601;32;20057;-70
2022/09/23 05:27:19;;;;;;;23.92;7.45;;;;;;;7.65;100.00;99269.25;4415710;32;20078;-70
2022/09/23 05:29:46;;;;;;;14.60;7.22;;;;;;;7.49;100.00;99257.28;4411243;32;20058;-72
2022/09/23 05:32:14;;;;;;;21.30;7.62;;;;;;;7.98;100.00;99317.09;4410472;32;20072;-69
2022/09/23 05:34:40;;;;;;;12.13;6.62;;;;;;;7.57;100.00;99259.63;4412957;32;20356;-70
2022/09/23 05:37:07;;;;;;;19.42;7.18;;;;;;;7.71;100.00;99276.37;4429039;32;20050;-70
2022/09/23 05:39:33;;;;;;;12.05;6.78;;;;;;;7.41;100.00;99207.47;4430099;32;20089;-70
2022/09/23 05:41:59;;;;;;;19.02;6.95;;;;;;;8.24;100.00;99323.16;4423717;32;20054;-73
2022/09/23 05:44:26;;;;;;;15.10;7.07;;;;;;;8.16;100.00;99296.66;4425720;32;20083;-70
2022/09/23 05:46:52;;;;;;;15.75;8.38;;;;;;;8.04;100.00;99268.97;4421729;32;20368;-69
2022/09/23 05:49:18;;;;;;;17.87;7.70;;;;;;;8.39;100.00;99316.56;4428362;32;20080;-70
2022/09/23 05:51:51;;;;;;;13.73;7.68;;;;;;;8.34;100.00;99318.06;4410732;32;20058;-70
2022/09/23 05:54:18;;;;;;;13.65;7.80;;;;;;;8.45;100.00;99313.81;4363292;32;20079;-71
2022/09/23 05:56:44;;;;;;;35.42;10.30;;;;;;;8.32;100.00;99271.84;4366205;32;20078;-69
2022/09/23 05:59:11;;;;;;;20.12;11.02;;;;;;;8.53;100.00;99309.97;4365982;32;20070;-70
2022/09/23 06:01:38;;;;;;;19.65;10.38;;;;;;;8.35;100.00;99282.13;4366478;32;20090;-70
2022/09/23 06:04:06;;;;;;;24.33;10.15;;;;;;;7.86;100.00;99181.34;4360579;32;20084;-74
2022/09/23 06:06:38;;;;;;;19.40;7.95;;;;;;;8.85;100.00;99323.13;4362874;32;20372;-70
2022/09/23 06:09:07;;;;;;;21.25;9.23;;;;;;;8.58;100.00;99280.56;4363391;32;20200;-70
2022/09/23 06:11:34;;;;;;;16.65;7.75;;;;;;;8.94;100.00;99327.09;4366579;32;20023;-70
2022/09/23 06:14:01;;;;;;;17.42;9.02;;;;;;;8.94;100.00;99305.63;4356465;32;20044;-74
2022/09/23 06:16:31;;;;;;;18.02;9.55;;;;;;;8.87;100.00;99280.72;4367057;32;20421;-72
2022/09/23 06:18:59;;;;;;;19.40;9.73;;;;;;;9.12;100.00;99317.31;4363894;32;20043;-71
2022/09/23 06:21:25;;;;;;;15.25;8.98;;;;;;;9.30;100.00;99327.12;4358601;32;20069;-70
2022/09/23 06:23:52;;;;;;;17.02;11.02;;;;;;;9.27;100.00;99315.00;4367943;32;20079;-69
2022/09/23 06:26:18;;;;;;;19.42;10.95;;;;;;;9.38;100.00;99319.53;4371310;32;20034;-70
2022/09/23 06:28:44;;;;;;;20.05;11.30;;;;;;;9.51;100.00;99325.69;4381819;32;20096;-70
2022/09/23 06:31:14;;;;;;;16.12;8.43;;;;;;;9.54;100.00;99327.94;4407775;32;20031;-71
2022/09/23 06:33:42;;;;;;;17.45;9.60;;;;;;;9.53;100.00;99291.38;4405782;32;20044;-71
2022/09/23 06:36:09;;;;;;;17.85;10.48;;;;;;;9.66;100.00;99306.41;4402725;32;20054;-73
2022/09/23 06:38:48;;;;;;;18.95;9.23;;;;;;;9.94;100.00;99336.06;4403302;32;20052;-70
2022/09/23 06:41:14;;;;;;;14.15;8.85;;;;;;;9.81;100.00;99290.59;4414698;32;20078;-70
2022/09/23 06:43:41;;;;;;;15.73;9.63;;;;;;;9.79;100.00;99284.63;4415070;32;20076;-71
2022/09/23 06:46:11;;;;;;;22.75;10.73;;;;;;;10.10;100.00;99329.09;4411453;32;20052;-71
2022/09/23 06:48:39;;;;;;;13.65;8.05;;;;;;;9.95;100.00;99288.44;4366394;32;20056;-69
2022/09/23 06:51:06;;;;;;;19.60;10.10;;;;;;;10.00;100.00;99284.00;4366164;32;20027;-72
2022/09/23 06:53:33;;;;;;;16.17;9.75;;;;;;;10.27;100.00;99312.19;4361159;32;20039;-71
2022/09/23 06:56:03;;;;;;;14.23;8.55;;;;;;;10.44;100.00;99329.22;4357295;32;20051;-76
2022/09/23 06:58:30;;;;;;;17.27;9.32;;;;;;;10.53;100.00;99335.84;4361778;32;20051;-69
2022/09/23 07:01:01;;;;;;;12.55;8.55;;;;;;;10.67;100.00;99332.84;4361822;32;20028;-70
2022/09/23 07:03:28;;;;;;;14.48;9.00;;;;;;;10.28;100.00;99249.25;4362889;32;20032;-70
2022/09/23 07:05:55;;;;;;;13.65;9.00;;;;;;;10.94;100.00;99335.72;4365477;32;20039;-76
2022/09/23 07:08:23;;;;;;;16.30;8.60;;;;;;;10.90;100.00;99327.31;4369444;32;20016;-72
2022/09/23 07:10:57;;;;;;;13.30;9.48;;;;;;;10.61;100.00;99282.66;4370460;32;20059;-70
2022/09/23 07:13:24;;;;;;;13.68;8.32;;;;;;;10.72;100.00;99303.31;4353983;32;20054;-69
2022/09/23 07:15:52;;;;;;;16.15;7.95;;;;;;;11.14;100.00;99340.63;4353377;32;20044;-74
2022/09/23 07:18:22;;;;;;;13.00;7.45;;;;;;;10.85;100.00;99296.78;4354049;32;20032;-70
2022/09/23 07:20:49;;;;;;;17.00;8.68;;;;;;;11.02;100.00;99308.37;4398949;32;20068;-70
2022/09/23 07:23:19;;;;;;;12.40;7.65;;;;;;;11.26;100.00;99333.28;4369717;32;20071;-70
2022/09/23 07:25:45;;;;;;;13.20;7.70;;;;;;;11.37;100.00;99336.13;4370625;32;20501;-70
2022/09/23 07:28:12;;;;;;;15.32;8.20;;;;;;;11.40;100.00;99335.63;4368866;32;20460;-70
2022/09/23 07:30:39;;;;;;;12.85;8.68;;;;;;;11.44;100.00;99326.81;4370524;32;20044;-70
2022/09/23 07:33:06;;;;;;;14.45;7.85;;;;;;;11.54;100.00;99342.31;4370743;32;20053;-69
2022/09/23 07:35:33;;;;;;;10.25;7.45;;;;;;;11.58;100.00;99343.47;4370395;32;20081;-69
2022/09/23 07:38:10;;;;;;;23.10;8.35;;;;;;;11.47;100.00;99298.50;4369137;32;20102;-71
2022/09/23 07:40:38;;;;;;;8.13;5.25;;;;;;;11.62;100.00;99306.81;4370342;32;20070;-70
2022/09/23 07:43:06;;;;;;;9.98;5.20;;;;;;;11.60;100.00;99303.56;4370250;32;20100;-71
2022/09/23 07:45:33;;;;;;;12.98;5.12;;;;;;;11.97;100.00;99335.34;4384411;32;20164;-74
2022/09/23 07:48:00;;;;;;;5.62;4.65;;;;;;;12.16;100.00;99352.03;4394057;32;20050;-71
2022/09/23 07:50:31;;;;;;;6.68;4.55;;;;;;;12.01;100.00;99302.47;4399060;32;20039;-71
2022/09/23 07:52:57;;;;;;;9.60;5.03;;;;;;;12.41;100.00;99355.28;4399634;32;20046;-73
2022/09/23 07:55:24;;;;;;;5.12;3.78;;;;;;;12.18;100.00;99305.91;4397182;32;20103;-70
2022/09/23 07:57:50;;;;;;;9.50;6.65;;;;;;;12.35;100.00;99336.31;4397976;32;20026;-71
2022/09/23 08:00:17;;;;;;;6.05;4.03;;;;;;;12.28;100.00;99321.38;4400833;32;20077;-70
2022/09/23 08:02:43;;;;;;;5.50;3.90;;;;;;;12.54;100.00;99344.09;4399576;32;20060;-71
2022/09/23 08:05:10;;;;;;;6.05;3.67;;;;;;;12.38;100.00;99336.88;4399795;32;20375;-71
2022/09/23 08:07:36;;;;;;;5.15;4.12;;;;;;;12.27;100.00;99334.06;4399554;32;20088;-71
2022/09/23 08:10:03;;;;;;;8.98;3.70;;;;;;;12.51;100.00;99341.88;4397842;32;20472;-76
2022/09/23 08:12:29;;;;;;;5.55;4.50;;;;;;;12.19;100.00;99294.03;4399843;32;20470;-72
2022/09/23 08:14:56;;;;;;;3.20;2.72;;;;;;;12.48;100.00;99345.91;4367657;32;20412;-72
2022/09/23 08:17:23;;;;;;;3.60;3.10;;;;;;;12.37;100.00;99327.97;4354461;32;20444;-71
2022/09/23 08:19:49;;;;;;;6.72;3.28;;;;;;;12.20;100.00;99333.44;4354841;32;20028;-70
2022/09/23 08:22:15;;;;;;;4.05;3.15;;;;;;;12.22;100.00;99334.03;4352965;32;20393;-73
2022/09/23 08:24:42;;;;;;;2.50;2.25;;;;;;;12.37;100.00;99333.38;4353924;32;20036;-71
2022/09/23 08:27:09;;;;;;;1.50;1.40;;;;;;;12.36;100.00;99337.13;4377785;32;20076;-71
2022/09/23 08:29:36;;;;;;;2.53;2.33;;;;;;;12.17;100.00;99296.16;4384889;32;20048;-70
2022/09/23 08:32:02;;;;;;;2.40;2.20;;;;;;;12.40;100.00;99332.03;4384735;32;20413;-70
2022/09/23 08:34:29;;;;;;;2.40;2.30;;;;;;;12.44;100.00;99306.16;4382455;32;20049;-69
2022/09/23 08:36:55;;;;;;;2.40;2.20;;;;;;;12.49;100.00;99287.28;4384551;32;20848;-70
2022/09/23 08:39:22;;;;;;;1.77;1.67;;;;;;;12.60;100.00;99289.00;4393917;32;20031;-69
2022/09/23 08:41:51;;;;;;;1.40;1.30;;;;;;;12.68;100.00;99285.03;4400163;32;20031;-69
2022/09/23 08:44:58;;;;;;;1.90;1.80;;;;;;;13.04;100.00;99334.78;4398436;32;20391;-73
2022/09/23 08:48:06;;;;;;;3.72;2.08;;;;;;;13.45;100.00;99323.50;4361980;32;20071;-69
2022/09/23 08:50:41;;;;;;;1.52;1.42;;;;;;;13.58;100.00;99330.31;4321512;33;20066;-69
2022/09/23 08:53:31;;;;;;;4.10;1.62;;;;;;;13.56;100.00;99329.75;4323993;33;20028;-72
2022/09/23 08:55:59;;;;;;;1.67;1.58;;;;;;;13.80;100.00;99328.28;4322719;33;20040;-69
2022/09/23 08:58:48;;;;;;;2.28;1.85;;;;;;;13.90;100.00;99326.69;4323727;33;20060;-70
2022/09/23 09:01:50;;;;;;;3.53;2.20;;;;;;;13.88;100.00;99323.41;4310544;33;20074;-70
2022/09/23 09:04:34;;;;;;;2.53;2.33;;;;;;;13.47;100.00;99280.75;4307716;33;20091;-70
2022/09/23 09:07:06;;;;;;;2.50;2.25;;;;;;;13.76;100.00;99331.75;4310103;33;20041;-69
2022/09/23 09:09:38;;;;;;;3.40;2.42;;;;;;;13.71;100.00;99332.53;4295763;33;20055;-69
2022/09/23 09:12:19;;;;;;;10.98;3.42;;;;;;;13.27;100.00;99249.78;4294084;33;20079;-70
2022/09/23 09:14:56;;;;;;;15.90;2.90;;;;;;;13.56;100.00;99289.16;4295387;33;20025;-70
2022/09/23 09:17:35;;;;;;;4.18;2.37;;;;;;;13.47;100.00;99271.84;4294137;33;20041;-72
2022/09/23 09:20:15;;;;;;;9.90;3.20;;;;;;;13.64;100.00;99280.53;4295378;33;20059;-70
2022/09/23 09:23:01;;;;;;;4.07;1.70;;;;;;;13.38;100.00;99283.13;4295300;33;20075;-70
2022/09/23 09:25:44;;;;;;;2.10;1.80;;;;;;;13.48;100.00;99305.91;4290647;33;20422;-69
2022/09/23 09:28:29;;;;;;;2.25;1.62;;;;;;;13.61;100.00;99313.56;4348703;32;20443;-69
2022/09/23 09:31:01;;;;;;;2.25;2.05;;;;;;;13.58;100.00;99292.44;4353825;32;20078;-71
2022/09/23 09:33:46;;;;;;;1.05;1.00;;;;;;;13.73;100.00;99259.22;4360126;32;20432;-70
2022/09/23 09:36:48;;;;;;;3.00;1.27;;;;;;;14.25;100.00;99300.78;4367431;32;20035;-73
2022/09/23 09:39:15;;;;;;;;;;;;;;;14.54;100.00;99293.81;4374996;32;20554;-70
2022/09/23 09:41:46;;;;;;;2.45;1.12;;;;;;;14.62;100.00;99288.97;4366610;32;19939;-73
2022/09/23 09:44:27;;;;;;;2.05;1.62;;;;;;;14.20;100.00;99287.25;4353517;32;20095;-69
2022/09/23 09:47:03;;;;;;;1.83;1.52;;;;;;;14.22;100.00;99285.09;4352647;32;20101;-69
2022/09/23 09:49:36;;;;;;;4.68;1.08;;;;;;;13.81;100.00;99261.41;4352442;32;20297;-69
2022/09/23 09:52:24;;;;;;;1.42;0.95;;;;;;;13.91;100.00;99290.41;4353654;32;20055;-69
2022/09/23 09:54:52;;;;;;;8.90;1.20;;;;;;;13.82;100.00;99287.41;4351810;32;20039;-69
2022/09/23 09:57:59;;;;;;;0.70;0.70;;;;;;;13.83;100.00;99285.50;4368834;32;20047;-69
2022/09/23 10:00:46;;;;;;;1.27;0.90;;;;;;;13.93;100.00;99272.84;4350395;32;20024;-69
2022/09/23 10:03:12;;;;;;;3.17;1.30;;;;;;;14.10;100.00;99277.19;4308323;33;20517;-69
2022/09/23 10:05:44;;;;;;;1.08;1.05;;;;;;;14.40;100.00;99271.03;4309148;33;20032;-68
2022/09/23 10:08:32;;;;;;;2.62;1.52;;;;;;;14.33;100.00;99232.56;4307597;33;20045;-68
2022/09/23 10:11:17;;;;;;;1.10;1.05;;;;;;;13.71;100.00;99223.50;4308190;33;20087;-69
2022/09/23 10:14:04;;;;;;;1.62;1.10;;;;;;;14.79;100.00;99267.84;4277843;33;20055;-68
2022/09/23 10:16:33;;;;;;;1.15;1.10;;;;;;;15.00;100.00;99274.06;4279868;33;20392;-68
2022/09/23 10:19:02;;;;;;;1.50;1.40;;;;;;;14.82;100.00;99228.53;4269501;33;20407;-68
2022/09/23 10:21:35;;;;;;;4.37;2.72;;;;;;;14.87;100.00;99269.16;4280441;33;20475;-67
2022/09/23 10:24:04;;;;;;;1.37;1.27;;;;;;;14.83;100.00;99268.09;4251372;33;20492;-68
2022/09/23 10:26:37;;;;;;;1.52;1.42;;;;;;;14.34;100.00;99251.25;4250422;33;20044;-68
2022/09/23 10:29:36;;;;;;;3.12;2.00;;;;;;;14.54;100.00;99265.91;4258279;33;20087;-68
2022/09/23 10:32:24;;;;;;;1.87;1.30;;;;;;;14.28;100.00;99263.16;4262077;33;20448;-68
2022/09/23 10:35:13;;;;;;;2.28;1.90;;;;;;;14.42;100.00;99263.44;4276199;33;20077;-68
2022/09/23 10:37:50;;;;;;;1.12;1.12;;;;;;;14.06;100.00;99230.09;4264526;33;20329;-67
2022/09/23 10:49:30;;;;;;;3.35;1.52;;;;;;;13.94;100.00;99216.78;4321399;33;20052;-71
2022/09/23 10:52:24;;;;;;;1.70;1.52;;;;;;;14.63;100.00;99247.22;4332230;33;20095;-69
2022/09/23 10:55:18;;;;;;;1.30;1.25;;;;;;;14.92;100.00;99216.84;4323908;33;20020;-67
2022/09/23 10:57:45;;;;;;;1.52;1.42;;;;;;;14.80;100.00;99247.75;4349025;32;20100;-71
2022/09/23 11:00:40;;;;;;;2.05;1.20;;;;;;;15.48;100.00;99248.47;4352729;32;20081;-68
2022/09/23 11:03:29;;;;;;;0.93;0.93;;;;;;;15.69;100.00;99214.72;4352071;32;20040;-69
2022/09/23 11:06:11;;;;;;;4.90;1.62;;;;;;;16.24;92.69;99246.47;4363411;32;20042;-67
2022/09/23 11:08:48;;;;;;;2.78;1.27;;;;;;;16.77;91.63;99237.63;4374288;32;20422;-68
2022/09/23 11:11:36;;;;;;;2.12;1.20;;;;;;;16.40;96.45;99241.75;4388797;32;20119;-67
2022/09/23 11:14:05;;;;;;;1.00;1.00;;;;;;;17.13;92.87;99242.78;4389160;32;20096;-66
2022/09/23 11:16:48;;;;;;;1.12;0.80;;;;;;;18.03;86.62;99234.91;4386705;32;20026;-70
2022/09/23 11:19:36;;;;;;;1.35;1.30;;;;;;;17.29;82.36;99238.78;4373453;32;20102;-69
2022/09/23 11:22:17;;;;;;;0.90;0.90;;;;;;;16.39;94.66;99246.37;4374136;32;20044;-71
2022/09/23 11:24:51;;;;;;;1.30;1.08;;;;;;;15.75;95.86;99197.31;4377053;32;20086;-68
2022/09/23 11:27:26;;;;;;;0.95;0.95;;;;;;;15.81;96.03;99233.41;4408938;32;20056;-67
2022/09/23 11:30:08;;;;;;;1.08;1.00;;;;;;;15.57;nan;99196.06;4379830;32;20060;-69
2022/09/23 11:33:36;;;;;;;0.77;0.77;;;;;;;15.56;99.08;99191.69;4378201;32;20503;-68
2022/09/23 11:36:20;;;;;;;4.03;0.80;;;;;;;15.90;77.88;99231.72;4303605;33;20055;-67
2022/09/23 11:38:50;;;;;;;1.67;0.90;;;;;;;16.66;73.12;99226.06;4378908;32;20038;-68
2022/09/23 11:41:26;;;;;;;1.70;1.60;;;;;;;16.91;77.39;99181.50;4351989;33;20051;-68
2022/09/23 11:44:05;;;;;;;1.20;1.20;;;;;;;17.18;77.82;99180.16;4351749;32;20062;-68
2022/09/23 11:46:40;;;;;;;0.88;0.88;;;;;;;16.45;82.69;99181.91;4352289;32;20054;-68
2022/09/23 11:49:15;;;;;;;1.10;1.10;;;;;;;16.49;84.70;99177.53;4353545;32;20036;-68
2022/09/23 11:52:10;;;;;;;0.75;0.75;;;;;;;16.72;80.58;99219.50;4362276;32;20732;-68
2022/09/23 11:55:06;;;;;;;2.10;0.90;;;;;;;16.29;83.10;99168.47;4367949;32;20047;-68
2022/09/23 11:57:47;;;;;;;0.93;0.93;;;;;;;16.23;79.67;99218.50;4368296;32;21068;-68
2022/09/23 12:00:23;;;;;;;1.55;1.23;;;;;;;15.82;96.13;99199.75;4373503;32;20401;-68
2022/09/23 12:03:02;;;;;;;31.85;8.98;;;;;;;15.16;100.00;99206.25;4395527;32;20050;-71
2022/09/23 12:05:34;;;;;;;3.12;1.95;;;;;;;14.68;100.00;99163.25;4402314;32;20497;-67